sensor_id;sensor_type;location;lat;lon;timestamp;pressure;altitude;pressure_sealevel;temperature;humidity
49461;BME280;35355;49.198;-0.368;2022-10-30T00:01:20;101066.03;;;17.29;76.40
49461;BME280;35355;49.198;-0.368;2022-10-30T00:03:45;101074.91;;;17.26;76.72
49461;BME280;35355;49.198;-0.368;2022-10-30T00:06:11;101078.16;;;17.28;76.83
49461;BME280;35355;49.198;-0.368;2022-10-30T00:08:36;101067.97;;;17.29;77.12
49461;BME280;35355;49.198;-0.368;2022-10-30T00:11:08;101061.63;;;17.28;76.97
49461;BME280;35355;49.198;-0.368;2022-10-30T00:13:35;101078.16;;;17.28;77.13
49461;BME280;35355;49.198;-0.368;2022-10-30T00:16:03;101094.72;;;17.28;77.00
49461;BME280;35355;49.198;-0.368;2022-10-30T00:18:29;101075.72;;;17.27;77.24
49461;BME280;35355;49.198;-0.368;2022-10-30T00:20:55;101060.28;;;17.26;77.24
49461;BME280;35355;49.198;-0.368;2022-10-30T00:23:20;101046.78;;;17.24;77.28
49461;BME280;35355;49.198;-0.368;2022-10-30T00:25:45;101031.38;;;17.23;77.38
49461;BME280;35355;49.198;-0.368;2022-10-30T00:28:11;101028.06;;;17.21;77.71
49461;BME280;35355;49.198;-0.368;2022-10-30T00:30:36;101042.16;;;17.19;77.57
49461;BME280;35355;49.198;-0.368;2022-10-30T00:33:02;101030.81;;;17.21;77.86
49461;BME280;35355;49.198;-0.368;2022-10-30T00:35:28;101022.03;;;17.19;77.85
49461;BME280;35355;49.198;-0.368;2022-10-30T00:37:54;101018.78;;;17.17;77.98
49461;BME280;35355;49.198;-0.368;2022-10-30T00:40:19;101023.75;;;17.15;78.28
49461;BME280;35355;49.198;-0.368;2022-10-30T00:42:45;101034.78;;;17.15;78.57
49461;BME280;35355;49.198;-0.368;2022-10-30T00:45:12;101032.31;;;17.13;78.37
49461;BME280;35355;49.198;-0.368;2022-10-30T00:47:42;101014.72;;;17.09;78.43
49461;BME280;35355;49.198;-0.368;2022-10-30T00:52:55;101019.44;;;17.09;78.55
49461;BME280;35355;49.198;-0.368;2022-10-30T00:55:46;101027.19;;;17.07;78.80
49461;BME280;35355;49.198;-0.368;2022-10-30T00:58:13;101029.97;;;17.07;78.58
49461;BME280;35355;49.198;-0.368;2022-10-30T01:00:43;101017.88;;;17.03;78.61
49461;BME280;35355;49.198;-0.368;2022-10-30T01:03:10;101020.63;;;17.03;78.97
49461;BME280;35355;49.198;-0.368;2022-10-30T01:05:36;101026.97;;;17.03;78.97
49461;BME280;35355;49.198;-0.368;2022-10-30T01:08:02;101017.34;;;17.00;79.00
49461;BME280;35355;49.198;-0.368;2022-10-30T01:10:27;101014.59;;;17.00;79.00
49461;BME280;35355;49.198;-0.368;2022-10-30T01:12:53;101017.63;;;16.99;79.04
49461;BME280;35355;49.198;-0.368;2022-10-30T01:15:24;101021.25;;;16.99;79.14
49461;BME280;35355;49.198;-0.368;2022-10-30T01:18:06;101016.31;;;16.96;78.82
49461;BME280;35355;49.198;-0.368;2022-10-30T01:20:58;101017.13;;;16.97;78.68
49461;BME280;35355;49.198;-0.368;2022-10-30T01:23:52;101014.38;;;16.97;78.88
49461;BME280;35355;49.198;-0.368;2022-10-30T01:26:37;101003.94;;;16.94;79.12
49461;BME280;35355;49.198;-0.368;2022-10-30T01:34:32;101023.44;;;16.97;79.28
49461;BME280;35355;49.198;-0.368;2022-10-30T01:37:15;101017.13;;;16.97;79.13
49461;BME280;35355;49.198;-0.368;2022-10-30T01:39:42;101028.16;;;16.97;79.16
49461;BME280;35355;49.198;-0.368;2022-10-30T01:53:50;101046.13;;;16.94;78.85
49461;BME280;35355;49.198;-0.368;2022-10-30T01:59:14;101035.91;;;16.95;78.85
49461;BME280;35355;49.198;-0.368;2022-10-30T02:01:42;101024.06;;;16.94;79.37
49461;BME280;35355;49.198;-0.368;2022-10-30T02:04:08;101024.06;;;16.94;79.31
49461;BME280;35355;49.198;-0.368;2022-10-30T02:06:35;101019.06;;;16.96;79.27
49461;BME280;35355;49.198;-0.368;2022-10-30T02:09:02;101007.50;;;16.94;79.32
49461;BME280;35355;49.198;-0.368;2022-10-30T02:11:28;101014.66;;;16.95;79.29
49461;BME280;35355;49.198;-0.368;2022-10-30T02:13:56;101016.63;;;16.95;79.23
49461;BME280;35355;49.198;-0.368;2022-10-30T02:16:22;101009.47;;;16.94;79.47
49461;BME280;35355;49.198;-0.368;2022-10-30T02:18:47;100992.09;;;16.93;79.46
49461;BME280;35355;49.198;-0.368;2022-10-30T02:21:13;100996.47;;;16.94;79.46
49461;BME280;35355;49.198;-0.368;2022-10-30T02:23:39;101005.06;;;16.93;79.20
49461;BME280;35355;49.198;-0.368;2022-10-30T02:26:04;101003.94;;;16.94;79.43
49461;BME280;35355;49.198;-0.368;2022-10-30T02:28:30;101002.84;;;16.95;79.29
49461;BME280;35355;49.198;-0.368;2022-10-30T02:30:55;100990.16;;;16.94;79.57
49461;BME280;35355;49.198;-0.368;2022-10-30T02:33:20;100989.34;;;16.93;79.29
49461;BME280;35355;49.198;-0.368;2022-10-30T02:35:47;100982.19;;;16.92;79.64
49461;BME280;35355;49.198;-0.368;2022-10-30T02:38:12;100981.34;;;16.92;79.35
49461;BME280;35355;49.198;-0.368;2022-10-30T02:40:38;100980.53;;;16.91;79.62
49461;BME280;35355;49.198;-0.368;2022-10-30T02:43:03;100980.03;;;16.89;79.50
49461;BME280;35355;49.198;-0.368;2022-10-30T02:45:28;100973.13;;;16.87;79.79
49461;BME280;35355;49.198;-0.368;2022-10-30T02:47:54;100973.97;;;16.87;79.94
49461;BME280;35355;49.198;-0.368;2022-10-30T02:50:19;100971.50;;;16.86;80.05
49461;BME280;35355;49.198;-0.368;2022-10-30T02:52:44;100977.00;;;16.86;80.06
49461;BME280;35355;49.198;-0.368;2022-10-30T02:55:10;100969.34;;;16.82;79.86
49461;BME280;35355;49.198;-0.368;2022-10-30T02:57:35;100963.00;;;16.82;80.05
49461;BME280;35355;49.198;-0.368;2022-10-30T03:00:01;100971.28;;;16.82;79.99
49461;BME280;35355;49.198;-0.368;2022-10-30T03:02:26;100962.47;;;16.80;80.12
49461;BME280;35355;49.198;-0.368;2022-10-30T03:04:51;100955.34;;;16.79;80.50
49461;BME280;35355;49.198;-0.368;2022-10-30T03:07:17;100941.56;;;16.79;80.42
49461;BME280;35355;49.198;-0.368;2022-10-30T03:09:42;100940.22;;;16.76;80.52
49461;BME280;35355;49.198;-0.368;2022-10-30T03:12:08;100941.00;;;16.77;80.67
49461;BME280;35355;49.198;-0.368;2022-10-30T03:14:33;100941.31;;;16.75;80.81
49461;BME280;35355;49.198;-0.368;2022-10-30T03:16:58;100939.47;;;16.71;80.66
49461;BME280;35355;49.198;-0.368;2022-10-30T03:19:24;100941.41;;;16.70;81.10
49461;BME280;35355;49.198;-0.368;2022-10-30T03:21:49;100941.69;;;16.69;81.00
49461;BME280;35355;49.198;-0.368;2022-10-30T03:24:14;100939.75;;;16.69;80.92
49461;BME280;35355;49.198;-0.368;2022-10-30T03:26:40;100945.56;;;16.67;80.94
49461;BME280;35355;49.198;-0.368;2022-10-30T03:29:05;100945.06;;;16.65;81.01
49461;BME280;35355;49.198;-0.368;2022-10-30T03:31:31;100962.41;;;16.66;81.10
49461;BME280;35355;49.198;-0.368;2022-10-30T03:33:57;100967.09;;;16.65;81.11
49461;BME280;35355;49.198;-0.368;2022-10-30T03:36:24;100958.84;;;16.65;81.14
49461;BME280;35355;49.198;-0.368;2022-10-30T03:38:49;100947.81;;;16.65;81.37
49461;BME280;35355;49.198;-0.368;2022-10-30T03:41:14;100937.91;;;16.64;81.24
49461;BME280;35355;49.198;-0.368;2022-10-30T03:43:40;100936.25;;;16.63;81.34
49461;BME280;35355;49.198;-0.368;2022-10-30T03:46:05;100945.06;;;16.65;81.35
49461;BME280;35355;49.198;-0.368;2022-10-30T03:48:31;100942.59;;;16.64;81.39
49461;BME280;35355;49.198;-0.368;2022-10-30T03:50:57;100944.53;;;16.63;81.72
49461;BME280;35355;49.198;-0.368;2022-10-30T03:53:23;100951.72;;;16.59;81.44
49461;BME280;35355;49.198;-0.368;2022-10-30T03:55:51;100953.69;;;16.59;81.93
49461;BME280;35355;49.198;-0.368;2022-10-30T03:58:16;100954.50;;;16.59;81.63
49461;BME280;35355;49.198;-0.368;2022-10-30T04:00:41;100957.25;;;16.59;81.86
49461;BME280;35355;49.198;-0.368;2022-10-30T04:03:08;100952.88;;;16.58;81.98
49461;BME280;35355;49.198;-0.368;2022-10-30T04:05:34;100955.63;;;16.58;82.00
49461;BME280;35355;49.198;-0.368;2022-10-30T04:08:02;100961.94;;;16.59;82.15
49461;BME280;35355;49.198;-0.368;2022-10-30T04:10:27;100972.16;;;16.58;81.89
49461;BME280;35355;49.198;-0.368;2022-10-30T04:13:00;100974.06;;;16.58;81.88
49461;BME280;35355;49.198;-0.368;2022-10-30T04:15:26;100983.19;;;16.58;82.09
49461;BME280;35355;49.198;-0.368;2022-10-30T04:17:52;100966.94;;;16.57;82.23
49461;BME280;35355;49.198;-0.368;2022-10-30T04:20:18;100956.72;;;16.57;82.20
49461;BME280;35355;49.198;-0.368;2022-10-30T04:22:44;100957.84;;;16.56;82.09
49461;BME280;35355;49.198;-0.368;2022-10-30T04:25:10;100979.88;;;16.56;82.43
49461;BME280;35355;49.198;-0.368;2022-10-30T04:27:42;100972.75;;;16.55;82.16
49461;BME280;35355;49.198;-0.368;2022-10-30T04:30:10;100970.00;;;16.55;82.45
49461;BME280;35355;49.198;-0.368;2022-10-30T04:32:36;100962.84;;;16.54;82.31
49461;BME280;35355;49.198;-0.368;2022-10-30T04:35:09;100963.94;;;16.53;82.53
49461;BME280;35355;49.198;-0.368;2022-10-30T04:37:34;100968.66;;;16.53;82.37
49461;BME280;35355;49.198;-0.368;2022-10-30T04:39:59;100966.19;;;16.51;82.63
49461;BME280;35355;49.198;-0.368;2022-10-30T04:42:25;100971.69;;;16.51;82.39
49461;BME280;35355;49.198;-0.368;2022-10-30T04:44:50;100970.59;;;16.52;82.60
49461;BME280;35355;49.198;-0.368;2022-10-30T04:47:16;100986.59;;;16.50;82.47
49461;BME280;35355;49.198;-0.368;2022-10-30T04:49:41;100992.09;;;16.50;82.51
49461;BME280;35355;49.198;-0.368;2022-10-30T04:52:07;100997.09;;;16.48;82.50
49461;BME280;35355;49.198;-0.368;2022-10-30T04:54:32;101000.97;;;16.47;82.66
49461;BME280;35355;49.198;-0.368;2022-10-30T04:56:57;101001.78;;;16.47;82.58
49461;BME280;35355;49.198;-0.368;2022-10-30T04:59:23;100995.75;;;16.45;82.74
49461;BME280;35355;49.198;-0.368;2022-10-30T05:01:48;101002.06;;;16.46;82.60
49461;BME280;35355;49.198;-0.368;2022-10-30T05:04:13;101003.50;;;16.43;82.98
49461;BME280;35355;49.198;-0.368;2022-10-30T05:06:39;101011.47;;;16.45;82.68
49461;BME280;35355;49.198;-0.368;2022-10-30T05:09:04;101015.91;;;16.41;82.77
49461;BME280;35355;49.198;-0.368;2022-10-30T05:11:29;101012.66;;;16.39;82.52
49461;BME280;35355;49.198;-0.368;2022-10-30T05:13:55;101014.34;;;16.35;82.85
49461;BME280;35355;49.198;-0.368;2022-10-30T05:16:20;101014.09;;;16.31;82.86
49461;BME280;35355;49.198;-0.368;2022-10-30T05:18:45;101008.66;;;16.26;82.97
49461;BME280;35355;49.198;-0.368;2022-10-30T05:41:53;101046.97;;;15.29;82.03
49461;BME280;35355;49.198;-0.368;2022-10-30T05:44:18;101019.22;;;15.25;82.91
49461;BME280;35355;49.198;-0.368;2022-10-30T05:46:43;101006.00;;;15.27;83.23
49461;BME280;35355;49.198;-0.368;2022-10-30T05:49:09;100992.50;;;15.31;83.44
49461;BME280;35355;49.198;-0.368;2022-10-30T05:51:34;100980.63;;;15.36;83.79
49461;BME280;35355;49.198;-0.368;2022-10-30T05:53:59;100980.06;;;15.39;83.87
49461;BME280;35355;49.198;-0.368;2022-10-30T05:56:25;100995.97;;;15.42;84.04
49461;BME280;35355;49.198;-0.368;2022-10-30T05:58:50;100991.56;;;15.46;83.92
49461;BME280;35355;49.198;-0.368;2022-10-30T06:01:16;100984.38;;;15.50;84.02
49461;BME280;35355;49.198;-0.368;2022-10-30T06:03:42;100993.66;;;15.54;84.04
49461;BME280;35355;49.198;-0.368;2022-10-30T06:06:08;100983.22;;;15.56;84.07
49461;BME280;35355;49.198;-0.368;2022-10-30T06:08:33;100985.66;;;15.58;84.07
49461;BME280;35355;49.198;-0.368;2022-10-30T06:10:58;100993.34;;;15.61;84.04
49461;BME280;35355;49.198;-0.368;2022-10-30T06:13:24;100991.09;;;15.63;83.89
49461;BME280;35355;49.198;-0.368;2022-10-30T06:15:49;101008.16;;;15.65;83.85
49461;BME280;35355;49.198;-0.368;2022-10-30T06:18:15;101018.88;;;15.67;83.80
49461;BME280;35355;49.198;-0.368;2022-10-30T06:20:40;101028.25;;;15.66;83.84
49461;BME280;35355;49.198;-0.368;2022-10-30T06:23:07;101043.66;;;15.67;83.70
49461;BME280;35355;49.198;-0.368;2022-10-30T06:25:34;101042.56;;;15.63;83.76
49461;BME280;35355;49.198;-0.368;2022-10-30T06:28:00;101056.84;;;15.65;83.92
49461;BME280;35355;49.198;-0.368;2022-10-30T06:30:27;101054.94;;;15.65;83.84
49461;BME280;35355;49.198;-0.368;2022-10-30T06:32:59;101058.81;;;15.64;83.25
49461;BME280;35355;49.198;-0.368;2022-10-30T06:35:25;101085.50;;;15.64;83.73
49461;BME280;35355;49.198;-0.368;2022-10-30T06:37:51;101068.72;;;15.60;83.55
49461;BME280;35355;49.198;-0.368;2022-10-30T06:40:17;101079.50;;;15.56;83.54
49461;BME280;35355;49.198;-0.368;2022-10-30T06:42:50;101085.59;;;15.53;83.56
49461;BME280;35355;49.198;-0.368;2022-10-30T06:45:16;101075.16;;;15.50;83.67
49461;BME280;35355;49.198;-0.368;2022-10-30T06:47:42;101079.00;;;15.49;83.92
49461;BME280;35355;49.198;-0.368;2022-10-30T06:50:10;101088.34;;;15.48;83.78
49461;BME280;35355;49.198;-0.368;2022-10-30T06:52:36;101084.25;;;15.46;84.05
49461;BME280;35355;49.198;-0.368;2022-10-30T06:55:02;101087.84;;;15.41;83.77
49461;BME280;35355;49.198;-0.368;2022-10-30T06:57:28;101089.28;;;15.38;84.00
49461;BME280;35355;49.198;-0.368;2022-10-30T06:59:53;101078.81;;;15.35;83.90
49461;BME280;35355;49.198;-0.368;2022-10-30T07:02:19;101077.47;;;15.33;84.08
49461;BME280;35355;49.198;-0.368;2022-10-30T07:04:44;101078.56;;;15.32;84.17
49461;BME280;35355;49.198;-0.368;2022-10-30T07:07:10;101080.81;;;15.30;84.28
49461;BME280;35355;49.198;-0.368;2022-10-30T07:09:36;101071.41;;;15.31;84.45
49461;BME280;35355;49.198;-0.368;2022-10-30T07:12:01;101071.97;;;15.33;84.44
49461;BME280;35355;49.198;-0.368;2022-10-30T07:14:26;101079.66;;;15.36;84.45
49461;BME280;35355;49.198;-0.368;2022-10-30T07:16:54;101074.16;;;15.36;84.38
49461;BME280;35355;49.198;-0.368;2022-10-30T07:19:19;101083.78;;;15.38;84.54
49461;BME280;35355;49.198;-0.368;2022-10-30T07:21:44;101090.09;;;15.39;84.32
49461;BME280;35355;49.198;-0.368;2022-10-30T07:24:09;101090.09;;;15.39;84.37
49461;BME280;35355;49.198;-0.368;2022-10-30T07:26:35;101084.56;;;15.39;84.35
49461;BME280;35355;49.198;-0.368;2022-10-30T07:29:03;101081.53;;;15.40;84.34
49461;BME280;35355;49.198;-0.368;2022-10-30T07:31:28;101104.34;;;15.41;84.54
49461;BME280;35355;49.198;-0.368;2022-10-30T07:33:53;101102.16;;;15.43;84.60
49461;BME280;35355;49.198;-0.368;2022-10-30T07:36:19;101098.28;;;15.44;84.76
49461;BME280;35355;49.198;-0.368;2022-10-30T07:38:44;101100.22;;;15.43;84.49
49461;BME280;35355;49.198;-0.368;2022-10-30T07:41:09;101107.09;;;15.46;84.16
49461;BME280;35355;49.198;-0.368;2022-10-30T07:43:35;101094.97;;;15.47;84.45
49461;BME280;35355;49.198;-0.368;2022-10-30T07:46:00;101088.34;;;15.48;84.47
49461;BME280;35355;49.198;-0.368;2022-10-30T07:48:25;101083.69;;;15.49;84.44
49461;BME280;35355;49.198;-0.368;2022-10-30T07:50:51;101083.94;;;15.47;84.31
49461;BME280;35355;49.198;-0.368;2022-10-30T07:53:16;101099.38;;;15.48;84.75
49461;BME280;35355;49.198;-0.368;2022-10-30T07:55:42;101095.50;;;15.49;84.55
49461;BME280;35355;49.198;-0.368;2022-10-30T07:58:07;101089.19;;;15.49;84.59
49461;BME280;35355;49.198;-0.368;2022-10-30T08:00:33;101091.66;;;15.50;84.50
49461;BME280;35355;49.198;-0.368;2022-10-30T08:02:58;101090.00;;;15.49;84.50
49461;BME280;35355;49.198;-0.368;2022-10-30T08:05:23;101096.31;;;15.50;84.61
49461;BME280;35355;49.198;-0.368;2022-10-30T08:07:49;101098.25;;;15.49;85.05
49461;BME280;35355;49.198;-0.368;2022-10-30T08:10:14;101108.16;;;15.50;84.69
49461;BME280;35355;49.198;-0.368;2022-10-30T08:12:40;101101.00;;;15.49;84.57
49461;BME280;35355;49.198;-0.368;2022-10-30T08:15:08;101107.03;;;15.51;84.65
49461;BME280;35355;49.198;-0.368;2022-10-30T08:17:41;101108.16;;;15.50;84.57
49461;BME280;35355;49.198;-0.368;2022-10-30T08:20:07;101097.97;;;15.51;84.79
49461;BME280;35355;49.198;-0.368;2022-10-30T08:22:34;101086.16;;;15.50;84.73
49461;BME280;35355;49.198;-0.368;2022-10-30T08:24:59;101097.16;;;15.50;84.78
49461;BME280;35355;49.198;-0.368;2022-10-30T08:27:24;101107.31;;;15.50;84.69
49461;BME280;35355;49.198;-0.368;2022-10-30T08:29:49;101109.78;;;15.51;84.75
49461;BME280;35355;49.198;-0.368;2022-10-30T08:32:15;101109.78;;;15.51;84.79
49461;BME280;35355;49.198;-0.368;2022-10-30T08:34:40;101107.03;;;15.51;84.76
49461;BME280;35355;49.198;-0.368;2022-10-30T08:37:06;101107.03;;;15.51;84.77
49461;BME280;35355;49.198;-0.368;2022-10-30T08:39:32;101118.03;;;15.51;84.81
49461;BME280;35355;49.198;-0.368;2022-10-30T08:41:57;101112.53;;;15.51;85.09
49461;BME280;35355;49.198;-0.368;2022-10-30T08:44:23;101115.28;;;15.51;84.70
49461;BME280;35355;49.198;-0.368;2022-10-30T08:46:49;101105.41;;;15.50;84.86
49461;BME280;35355;49.198;-0.368;2022-10-30T08:49:14;101106.22;;;15.51;84.61
49461;BME280;35355;49.198;-0.368;2022-10-30T08:51:39;101099.38;;;15.48;84.72
49461;BME280;35355;49.198;-0.368;2022-10-30T08:54:05;101100.19;;;15.49;84.70
49461;BME280;35355;49.198;-0.368;2022-10-30T08:56:30;101100.47;;;15.47;84.79
49461;BME280;35355;49.198;-0.368;2022-10-30T08:58:56;101107.09;;;15.46;84.74
49461;BME280;35355;49.198;-0.368;2022-10-30T09:01:21;101108.19;;;15.45;84.64
49461;BME280;35355;49.198;-0.368;2022-10-30T09:03:46;101117.25;;;15.46;84.60
49461;BME280;35355;49.198;-0.368;2022-10-30T09:06:12;101131.28;;;15.44;84.75
49461;BME280;35355;49.198;-0.368;2022-10-30T09:08:37;101137.63;;;15.44;84.70
49461;BME280;35355;49.198;-0.368;2022-10-30T09:11:03;101132.94;;;15.45;84.98
49461;BME280;35355;49.198;-0.368;2022-10-30T09:13:28;101134.59;;;15.46;84.67
49461;BME280;35355;49.198;-0.368;2022-10-30T09:15:58;101127.44;;;15.45;84.47
49461;BME280;35355;49.198;-0.368;2022-10-30T09:18:23;101137.63;;;15.44;84.89
49461;BME280;35355;49.198;-0.368;2022-10-30T09:20:49;101137.94;;;15.43;84.72
49461;BME280;35355;49.198;-0.368;2022-10-30T09:23:14;101133.81;;;15.40;84.61
49461;BME280;35355;49.198;-0.368;2022-10-30T09:25:40;101132.72;;;15.41;84.87
49461;BME280;35355;49.198;-0.368;2022-10-30T09:28:05;101120.88;;;15.41;84.76
49461;BME280;35355;49.198;-0.368;2022-10-30T09:30:30;101109.06;;;15.40;84.61
49461;BME280;35355;49.198;-0.368;2022-10-30T09:32:59;101107.41;;;15.39;85.03
49461;BME280;35355;49.198;-0.368;2022-10-30T09:35:27;101123.09;;;15.39;84.97
49461;BME280;35355;49.198;-0.368;2022-10-30T09:37:52;101125.31;;;15.37;84.79
49461;BME280;35355;49.198;-0.368;2022-10-30T09:43:13;101120.91;;;15.36;84.92
49461;BME280;35355;49.198;-0.368;2022-10-30T09:45:54;101107.72;;;15.33;84.86
49461;BME280;35355;49.198;-0.368;2022-10-30T09:51:23;101119.81;;;15.32;84.87
49461;BME280;35355;49.198;-0.368;2022-10-30T09:56:31;101134.41;;;15.32;84.83
49461;BME280;35355;49.198;-0.368;2022-10-30T10:04:45;101101.97;;;15.29;84.82
49461;BME280;35355;49.198;-0.368;2022-10-30T10:09:43;101110.78;;;15.26;85.39
49461;BME280;35355;49.198;-0.368;2022-10-30T10:14:48;101070.38;;;15.26;85.25
49461;BME280;35355;49.198;-0.368;2022-10-30T10:17:23;101073.13;;;15.26;84.88
49461;BME280;35355;49.198;-0.368;2022-10-30T10:19:56;101112.72;;;15.25;84.98
49461;BME280;35355;49.198;-0.368;2022-10-30T10:22:26;101116.31;;;15.21;84.57
49461;BME280;35355;49.198;-0.368;2022-10-30T10:24:53;101134.22;;;15.18;85.05
49461;BME280;35355;49.198;-0.368;2022-10-30T10:27:26;101145.44;;;15.22;85.05
49461;BME280;35355;49.198;-0.368;2022-10-30T10:30:07;101138.31;;;15.21;84.87
49461;BME280;35355;49.198;-0.368;2022-10-30T10:32:51;101139.38;;;15.25;84.64
49461;BME280;35355;49.198;-0.368;2022-10-30T10:35:52;101161.13;;;15.26;84.91
49461;BME280;35355;49.198;-0.368;2022-10-30T10:38:27;101164.13;;;15.25;84.99
49461;BME280;35355;49.198;-0.368;2022-10-30T10:41:12;101169.38;;;15.26;84.76
49461;BME280;35355;49.198;-0.368;2022-10-30T10:49:18;101180.38;;;15.26;84.82
49461;BME280;35355;49.198;-0.368;2022-10-30T10:51:49;101172.66;;;15.29;84.79
49461;BME280;35355;49.198;-0.368;2022-10-30T10:57:06;101175.69;;;15.27;84.85
49461;BME280;35355;49.198;-0.368;2022-10-30T10:59:41;101182.00;;;15.27;84.60
49461;BME280;35355;49.198;-0.368;2022-10-30T11:04:38;101220.50;;;15.27;84.77
49461;BME280;35355;49.198;-0.368;2022-10-30T11:07:31;101201.53;;;15.26;84.64
49461;BME280;35355;49.198;-0.368;2022-10-30T11:09:58;101184.22;;;15.25;84.91
49461;BME280;35355;49.198;-0.368;2022-10-30T11:12:43;101171.00;;;15.27;84.63
49461;BME280;35355;49.198;-0.368;2022-10-30T11:15:25;101180.38;;;15.26;84.97
49461;BME280;35355;49.198;-0.368;2022-10-30T11:17:58;101197.69;;;15.27;85.05
49461;BME280;35355;49.198;-0.368;2022-10-30T11:22:55;101182.28;;;15.26;84.78
49461;BME280;35355;49.198;-0.368;2022-10-30T11:25:23;101206.47;;;15.29;84.67
49461;BME280;35355;49.198;-0.368;2022-10-30T11:27:57;101216.09;;;15.32;84.61
49461;BME280;35355;49.198;-0.368;2022-10-30T11:30:25;101216.63;;;15.34;84.70
49461;BME280;35355;49.198;-0.368;2022-10-30T11:32:53;101209.16;;;15.39;84.56
49461;BME280;35355;49.198;-0.368;2022-10-30T11:35:20;101207.25;;;15.40;84.40
49461;BME280;35355;49.198;-0.368;2022-10-30T11:37:48;101195.41;;;15.39;84.40
49461;BME280;35355;49.198;-0.368;2022-10-30T11:42:57;101171.50;;;15.40;84.15
49461;BME280;35355;49.198;-0.368;2022-10-30T11:45:26;101174.50;;;15.43;84.21
49461;BME280;35355;49.198;-0.368;2022-10-30T11:47:53;101176.44;;;15.43;84.15
49461;BME280;35355;49.198;-0.368;2022-10-30T11:50:21;101178.31;;;15.48;84.06
49461;BME280;35355;49.198;-0.368;2022-10-30T11:52:50;101184.66;;;15.48;83.88
49461;BME280;35355;49.198;-0.368;2022-10-30T11:55:20;101189.56;;;15.51;83.87
49461;BME280;35355;49.198;-0.368;2022-10-30T11:57:57;101183.53;;;15.49;83.90
49461;BME280;35355;49.198;-0.368;2022-10-30T12:00:29;101185.19;;;15.50;83.75
49461;BME280;35355;49.198;-0.368;2022-10-30T12:02:57;101181.31;;;15.51;83.32
49461;BME280;35355;49.198;-0.368;2022-10-30T12:08:16;101166.47;;;15.52;83.59
49461;BME280;35355;49.198;-0.368;2022-10-30T12:13:18;101178.56;;;15.56;83.27
49461;BME280;35355;49.198;-0.368;2022-10-30T12:15:46;101178.28;;;15.58;83.31
49461;BME280;35355;49.198;-0.368;2022-10-30T12:18:25;101173.56;;;15.58;83.17
49461;BME280;35355;49.198;-0.368;2022-10-30T12:20:53;101165.91;;;15.55;82.99
49461;BME280;35355;49.198;-0.368;2022-10-30T12:23:21;101160.09;;;15.57;83.24
49461;BME280;35355;49.198;-0.368;2022-10-30T12:25:52;101163.66;;;15.57;82.93
49461;BME280;35355;49.198;-0.368;2022-10-30T12:28:23;101163.13;;;15.60;83.00
49461;BME280;35355;49.198;-0.368;2022-10-30T12:30:57;101161.72;;;15.63;82.88
49461;BME280;35355;49.198;-0.368;2022-10-30T12:33:46;101159.25;;;15.61;82.63
49461;BME280;35355;49.198;-0.368;2022-10-30T12:36:22;101157.63;;;15.55;82.63
49461;BME280;35355;49.198;-0.368;2022-10-30T12:38:53;101149.38;;;15.55;82.54
49461;BME280;35355;49.198;-0.368;2022-10-30T12:41:25;101145.53;;;15.56;82.58
49461;BME280;35355;49.198;-0.368;2022-10-30T12:44:19;101145.78;;;15.60;82.61
49461;BME280;35355;49.198;-0.368;2022-10-30T12:50:01;101138.88;;;15.63;82.65
49461;BME280;35355;49.198;-0.368;2022-10-30T12:52:31;101146.28;;;15.67;82.43
49461;BME280;35355;49.198;-0.368;2022-10-30T12:55:19;101139.38;;;15.70;82.49
49461;BME280;35355;49.198;-0.368;2022-10-30T13:00:34;101137.72;;;15.69;82.21
49461;BME280;35355;49.198;-0.368;2022-10-30T13:05:54;101142.94;;;15.70;82.54
49461;BME280;35355;49.198;-0.368;2022-10-30T13:10:52;101140.75;;;15.72;81.96
49461;BME280;35355;49.198;-0.368;2022-10-30T13:13:24;101146.78;;;15.74;81.79
49461;BME280;35355;49.198;-0.368;2022-10-30T13:15:53;101136.59;;;15.75;82.25
49461;BME280;35355;49.198;-0.368;2022-10-30T13:18:22;101138.25;;;15.76;81.83
49461;BME280;35355;49.198;-0.368;2022-10-30T13:23:44;101136.88;;;15.78;81.81
49461;BME280;35355;49.198;-0.368;2022-10-30T13:26:30;101137.94;;;15.77;81.99
49461;BME280;35355;49.198;-0.368;2022-10-30T13:29:05;101147.59;;;15.80;81.95
49461;BME280;35355;49.198;-0.368;2022-10-30T13:39:30;101153.03;;;15.90;81.64
49461;BME280;35355;49.198;-0.368;2022-10-30T13:45:20;101147.53;;;15.90;81.39
49461;BME280;35355;49.198;-0.368;2022-10-30T14:11:24;101148.75;;;15.24;81.19
49461;BME280;35355;49.198;-0.368;2022-10-30T14:13:53;101145.72;;;15.25;81.58
49461;BME280;35355;49.198;-0.368;2022-10-30T14:16:40;101149.28;;;15.31;82.02
49461;BME280;35355;49.198;-0.368;2022-10-30T14:19:06;101160.78;;;15.38;81.67
49461;BME280;35355;49.198;-0.368;2022-10-30T14:21:57;101143.66;;;15.47;82.14
49461;BME280;35355;49.198;-0.368;2022-10-30T14:24:30;101137.00;;;15.53;82.00
49461;BME280;35355;49.198;-0.368;2022-10-30T14:34:56;101147.81;;;15.89;81.83
49461;BME280;35355;49.198;-0.368;2022-10-30T14:39:48;101148.53;;;16.00;81.16
49461;BME280;35355;49.198;-0.368;2022-10-30T14:42:24;101153.47;;;16.03;81.23
49461;BME280;35355;49.198;-0.368;2022-10-30T14:58:24;101165.28;;;16.03;80.77
49461;BME280;35355;49.198;-0.368;2022-10-30T15:00:54;101171.63;;;16.04;80.40
49461;BME280;35355;49.198;-0.368;2022-10-30T15:09:18;101168.91;;;15.99;80.54
49461;BME280;35355;49.198;-0.368;2022-10-30T15:16:49;101170.06;;;15.92;80.38
49461;BME280;35355;49.198;-0.368;2022-10-30T15:19:16;101176.66;;;15.91;80.12
49461;BME280;35355;49.198;-0.368;2022-10-30T15:21:48;101179.44;;;15.91;80.30
49461;BME280;35355;49.198;-0.368;2022-10-30T15:24:19;101176.44;;;15.88;80.48
49461;BME280;35355;49.198;-0.368;2022-10-30T15:26:51;101174.50;;;15.88;80.40
49461;BME280;35355;49.198;-0.368;2022-10-30T15:29:19;101189.38;;;15.87;80.45
49461;BME280;35355;49.198;-0.368;2022-10-30T15:31:59;101195.72;;;15.88;80.42
49461;BME280;35355;49.198;-0.368;2022-10-30T15:34:29;101179.19;;;15.88;80.51